sensor_id;sensor_type;location;lat;lon;timestamp;pressure;altitude;pressure_sealevel;temperature;humidity
71126;BME280;58785;55.566;38.058;2023-07-02T00:00:29;98596.97;;;18.02;80.24
71126;BME280;58785;55.566;38.058;2023-07-02T00:02:55;98587.69;;;17.98;80.50
71126;BME280;58785;55.566;38.058;2023-07-02T00:05:21;98598.16;;;17.95;80.53
71126;BME280;58785;55.566;38.058;2023-07-02T00:07:46;98599.88;;;17.89;80.64
71126;BME280;58785;55.566;38.058;2023-07-02T00:10:12;98606.56;;;17.87;80.73
71126;BME280;58785;55.566;38.058;2023-07-02T00:12:38;98600.22;;;17.81;80.89
71126;BME280;58785;55.566;38.058;2023-07-02T00:15:04;98594.94;;;17.74;80.93
71126;BME280;58785;55.566;38.058;2023-07-02T00:17:32;98590.22;;;17.70;81.19
71126;BME280;58785;55.566;38.058;2023-07-02T00:19:58;98589.84;;;17.66;81.22
71126;BME280;58785;55.566;38.058;2023-07-02T00:22:29;98591.13;;;17.64;81.25
71126;BME280;58785;55.566;38.058;2023-07-02T00:24:55;98589.34;;;17.58;81.57
71126;BME280;58785;55.566;38.058;2023-07-02T00:27:21;98592.63;;;17.60;81.55
71126;BME280;58785;55.566;38.058;2023-07-02T00:29:47;98593.91;;;17.57;81.35
71126;BME280;58785;55.566;38.058;2023-07-02T00:32:13;98584.28;;;17.49;81.68
71126;BME280;58785;55.566;38.058;2023-07-02T00:34:38;98605.97;;;17.55;81.56
71126;BME280;58785;55.566;38.058;2023-07-02T00:37:04;98605.97;;;17.55;81.61
71126;BME280;58785;55.566;38.058;2023-07-02T00:39:29;98608.06;;;17.52;81.61
71126;BME280;58785;55.566;38.058;2023-07-02T00:42:00;98608.69;;;17.55;81.82
71126;BME280;58785;55.566;38.058;2023-07-02T00:44:27;98612.63;;;17.52;81.89
71126;BME280;58785;55.566;38.058;2023-07-02T00:46:52;98598.66;;;17.43;81.64
71126;BME280;58785;55.566;38.058;2023-07-02T00:49:18;98617.66;;;17.48;81.87
71126;BME280;58785;55.566;38.058;2023-07-02T00:51:44;98605.25;;;17.47;81.89
71126;BME280;58785;55.566;38.058;2023-07-02T00:54:09;98607.34;;;17.45;81.78
71126;BME280;58785;55.566;38.058;2023-07-02T00:56:35;98610.28;;;17.44;81.96
71126;BME280;58785;55.566;38.058;2023-07-02T00:59:01;98602.63;;;17.41;81.98
71126;BME280;58785;55.566;38.058;2023-07-02T01:01:27;98602.63;;;17.41;82.03
71126;BME280;58785;55.566;38.058;2023-07-02T01:06:26;98601.69;;;17.35;81.97
71126;BME280;58785;55.566;38.058;2023-07-02T01:08:54;98604.38;;;17.35;82.20
71126;BME280;58785;55.566;38.058;2023-07-02T01:11:23;98615.16;;;17.35;82.17
71126;BME280;58785;55.566;38.058;2023-07-02T01:13:53;98612.69;;;17.34;82.37
71126;BME280;58785;55.566;38.058;2023-07-02T01:16:21;98616.81;;;17.36;82.13
71126;BME280;58785;55.566;38.058;2023-07-02T01:18:48;98619.50;;;17.36;82.11
71126;BME280;58785;55.566;38.058;2023-07-02T01:21:16;98612.47;;;17.35;82.27
71126;BME280;58785;55.566;38.058;2023-07-02T01:23:43;98612.00;;;17.38;82.16
71126;BME280;58785;55.566;38.058;2023-07-02T01:26:09;98617.63;;;17.37;82.11
71126;BME280;58785;55.566;38.058;2023-07-02T01:28:35;98621.13;;;17.37;82.17
71126;BME280;58785;55.566;38.058;2023-07-02T01:31:04;98622.09;;;17.43;81.99
71126;BME280;58785;55.566;38.058;2023-07-02T01:33:33;98621.88;;;17.44;82.17
71126;BME280;58785;55.566;38.058;2023-07-02T01:35:58;98619.19;;;17.44;82.16
71126;BME280;58785;55.566;38.058;2023-07-02T01:38:24;98620.59;;;17.47;81.96
71126;BME280;58785;55.566;38.058;2023-07-02T01:40:50;98627.75;;;17.53;81.95
71126;BME280;58785;55.566;38.058;2023-07-02T01:43:16;98630.81;;;17.57;81.88
71126;BME280;58785;55.566;38.058;2023-07-02T01:45:42;98627.44;;;17.61;82.10
71126;BME280;58785;55.566;38.058;2023-07-02T01:48:07;98631.56;;;17.64;81.70
71126;BME280;58785;55.566;38.058;2023-07-02T01:50:33;98627.00;;;17.64;81.87
71126;BME280;58785;55.566;38.058;2023-07-02T01:52:59;98626.38;;;17.62;81.74
71126;BME280;58785;55.566;38.058;2023-07-02T01:55:25;98635.44;;;17.68;81.83
71126;BME280;58785;55.566;38.058;2023-07-02T01:57:50;98631.88;;;17.74;81.57
71126;BME280;58785;55.566;38.058;2023-07-02T02:00:16;98624.38;;;17.76;81.55
71126;BME280;58785;55.566;38.058;2023-07-02T02:02:43;98629.88;;;17.81;81.17
71126;BME280;58785;55.566;38.058;2023-07-02T02:05:09;98622.25;;;17.78;81.37
71126;BME280;58785;55.566;38.058;2023-07-02T02:07:37;98638.69;;;17.88;81.37
71126;BME280;58785;55.566;38.058;2023-07-02T02:10:03;98635.19;;;17.88;81.35
71126;BME280;58785;55.566;38.058;2023-07-02T02:12:31;98644.00;;;17.95;81.19
71126;BME280;58785;55.566;38.058;2023-07-02T02:14:57;98638.38;;;17.96;81.14
71126;BME280;58785;55.566;38.058;2023-07-02T02:17:23;98643.28;;;17.99;81.10
71126;BME280;58785;55.566;38.058;2023-07-02T02:19:49;98633.09;;;18.01;81.05
71126;BME280;58785;55.566;38.058;2023-07-02T02:22:16;98650.56;;;18.10;80.90
71126;BME280;58785;55.566;38.058;2023-07-02T02:24:42;98654.25;;;18.16;80.69
71126;BME280;58785;55.566;38.058;2023-07-02T02:27:07;98647.53;;;18.19;80.79
71126;BME280;58785;55.566;38.058;2023-07-02T02:29:34;98650.59;;;18.22;80.57
71126;BME280;58785;55.566;38.058;2023-07-02T02:32:00;98648.84;;;18.28;80.89
71126;BME280;58785;55.566;38.058;2023-07-02T02:34:26;98641.69;;;18.33;80.37
71126;BME280;58785;55.566;38.058;2023-07-02T02:36:52;98642.53;;;18.34;80.18
71126;BME280;58785;55.566;38.058;2023-07-02T02:39:20;98644.91;;;18.65;79.26
71126;BME280;58785;55.566;38.058;2023-07-02T02:41:46;98657.28;;;19.13;78.96
71126;BME280;58785;55.566;38.058;2023-07-02T02:44:12;98651.19;;;19.58;77.90
71126;BME280;58785;55.566;38.058;2023-07-02T02:46:37;98658.00;;;20.06;77.01
71126;BME280;58785;55.566;38.058;2023-07-02T02:49:03;98655.44;;;20.45;76.33
71126;BME280;58785;55.566;38.058;2023-07-02T02:51:29;98644.78;;;20.77;75.38
71126;BME280;58785;55.566;38.058;2023-07-02T02:53:54;98649.84;;;21.12;74.47
71126;BME280;58785;55.566;38.058;2023-07-02T02:56:20;98646.47;;;21.43;73.93
71126;BME280;58785;55.566;38.058;2023-07-02T02:58:45;98639.44;;;21.69;73.29
71126;BME280;58785;55.566;38.058;2023-07-02T03:01:11;98659.81;;;21.99;72.44
71126;BME280;58785;55.566;38.058;2023-07-02T03:03:40;98642.91;;;22.19;71.73
71126;BME280;58785;55.566;38.058;2023-07-02T03:06:10;98646.31;;;22.36;70.94
71126;BME280;58785;55.566;38.058;2023-07-02T03:08:36;98652.47;;;22.58;70.71
71126;BME280;58785;55.566;38.058;2023-07-02T03:11:02;98662.94;;;22.82;70.17
71126;BME280;58785;55.566;38.058;2023-07-02T03:13:28;98657.09;;;23.00;69.36
71126;BME280;58785;55.566;38.058;2023-07-02T03:15:53;98656.38;;;23.15;68.74
71126;BME280;58785;55.566;38.058;2023-07-02T03:18:19;98649.88;;;23.26;68.36
71126;BME280;58785;55.566;38.058;2023-07-02T03:20:45;98657.53;;;23.44;67.79
71126;BME280;58785;55.566;38.058;2023-07-02T03:23:10;98659.28;;;23.61;67.40
71126;BME280;58785;55.566;38.058;2023-07-02T03:25:36;98665.84;;;23.70;67.01
71126;BME280;58785;55.566;38.058;2023-07-02T03:28:02;98663.13;;;23.80;66.38
71126;BME280;58785;55.566;38.058;2023-07-02T03:30:28;98657.16;;;23.88;66.24
71126;BME280;58785;55.566;38.058;2023-07-02T03:32:54;98659.06;;;23.93;65.96
71126;BME280;58785;55.566;38.058;2023-07-02T03:35:20;98660.19;;;24.12;65.33
71126;BME280;58785;55.566;38.058;2023-07-02T03:37:46;98655.81;;;24.21;64.89
71126;BME280;58785;55.566;38.058;2023-07-02T03:40:12;98650.66;;;24.35;64.46
71126;BME280;58785;55.566;38.058;2023-07-02T03:42:37;98659.94;;;24.49;63.90
71126;BME280;58785;55.566;38.058;2023-07-02T03:45:03;98665.66;;;24.63;63.63
71126;BME280;58785;55.566;38.058;2023-07-02T03:47:31;98671.91;;;24.69;63.37
71126;BME280;58785;55.566;38.058;2023-07-02T03:49:57;98681.47;;;24.66;63.64
71126;BME280;58785;55.566;38.058;2023-07-02T03:52:23;98673.84;;;24.48;63.74
71126;BME280;58785;55.566;38.058;2023-07-02T03:54:48;98682.25;;;24.16;64.39
71126;BME280;58785;55.566;38.058;2023-07-02T03:57:14;98687.34;;;23.82;65.29
71126;BME280;58785;55.566;38.058;2023-07-02T03:59:40;98692.41;;;23.47;65.97
71126;BME280;58785;55.566;38.058;2023-07-02T04:02:05;98688.72;;;23.16;66.64
71126;BME280;58785;55.566;38.058;2023-07-02T04:04:31;98692.53;;;22.78;67.37
71126;BME280;58785;55.566;38.058;2023-07-02T04:06:57;98694.31;;;22.62;67.59
71126;BME280;58785;55.566;38.058;2023-07-02T04:09:22;98693.59;;;22.40;68.16
71126;BME280;58785;55.566;38.058;2023-07-02T04:11:48;98707.38;;;22.28;68.24
71126;BME280;58785;55.566;38.058;2023-07-02T04:14:14;98693.97;;;22.17;68.63
71126;BME280;58785;55.566;38.058;2023-07-02T04:16:39;98710.84;;;22.24;68.41
71126;BME280;58785;55.566;38.058;2023-07-02T04:19:05;98713.56;;;22.24;68.48
71126;BME280;58785;55.566;38.058;2023-07-02T04:21:30;98723.75;;;22.12;68.69
71126;BME280;58785;55.566;38.058;2023-07-02T04:23:56;98715.75;;;22.00;68.87
71126;BME280;58785;55.566;38.058;2023-07-02T04:28:47;98721.94;;;21.95;68.92
71126;BME280;58785;55.566;38.058;2023-07-02T04:31:13;98718.94;;;22.19;68.66
71126;BME280;58785;55.566;38.058;2023-07-02T04:33:39;98719.91;;;22.34;68.40
71126;BME280;58785;55.566;38.058;2023-07-02T04:36:05;98721.75;;;22.56;67.90
71126;BME280;58785;55.566;38.058;2023-07-02T04:38:31;98723.44;;;22.99;67.09
71126;BME280;58785;55.566;38.058;2023-07-02T04:40:57;98710.81;;;23.25;66.40
71126;BME280;58785;55.566;38.058;2023-07-02T04:43:27;98719.53;;;23.32;66.12
71126;BME280;58785;55.566;38.058;2023-07-02T04:45:55;98717.16;;;23.46;66.01
71126;BME280;58785;55.566;38.058;2023-07-02T04:48:21;98717.03;;;23.78;65.42
71126;BME280;58785;55.566;38.058;2023-07-02T04:50:46;98714.63;;;23.97;64.58
71126;BME280;58785;55.566;38.058;2023-07-02T04:53:12;98718.13;;;23.82;65.09
71126;BME280;58785;55.566;38.058;2023-07-02T04:55:38;98726.66;;;23.43;65.57
71126;BME280;58785;55.566;38.058;2023-07-02T04:58:03;98716.91;;;23.00;66.27
71126;BME280;58785;55.566;38.058;2023-07-02T05:00:29;98700.84;;;22.99;66.47
71126;BME280;58785;55.566;38.058;2023-07-02T05:02:55;98725.28;;;23.41;65.58
71126;BME280;58785;55.566;38.058;2023-07-02T05:05:20;98717.81;;;23.68;64.56
71126;BME280;58785;55.566;38.058;2023-07-02T05:07:46;98729.38;;;24.06;63.50
71126;BME280;58785;55.566;38.058;2023-07-02T05:10:11;98727.75;;;24.30;63.06
71126;BME280;58785;55.566;38.058;2023-07-02T05:12:37;98728.88;;;24.45;62.27
71126;BME280;58785;55.566;38.058;2023-07-02T05:15:03;98728.91;;;24.60;61.91
71126;BME280;58785;55.566;38.058;2023-07-02T05:17:31;98715.25;;;24.80;61.06
71126;BME280;58785;55.566;38.058;2023-07-02T05:20:01;98719.63;;;24.86;60.68
71126;BME280;58785;55.566;38.058;2023-07-02T05:22:26;98728.88;;;24.96;60.94
71126;BME280;58785;55.566;38.058;2023-07-02T05:24:52;98728.34;;;24.88;60.89
71126;BME280;58785;55.566;38.058;2023-07-02T05:27:18;98732.13;;;24.92;60.67
71126;BME280;58785;55.566;38.058;2023-07-02T05:29:43;98731.34;;;24.97;60.62
71126;BME280;58785;55.566;38.058;2023-07-02T05:32:09;98721.78;;;25.10;60.41
71126;BME280;58785;55.566;38.058;2023-07-02T05:34:35;98719.03;;;25.20;59.97
71126;BME280;58785;55.566;38.058;2023-07-02T05:37:01;98718.16;;;25.35;60.24
71126;BME280;58785;55.566;38.058;2023-07-02T05:39:26;98726.81;;;25.57;59.65
71126;BME280;58785;55.566;38.058;2023-07-02T05:41:52;98722.13;;;25.68;59.60
71126;BME280;58785;55.566;38.058;2023-07-02T05:44:18;98728.78;;;25.46;59.27
71126;BME280;58785;55.566;38.058;2023-07-02T05:46:43;98732.38;;;25.37;59.59
71126;BME280;58785;55.566;38.058;2023-07-02T05:49:09;98738.56;;;25.58;59.00
71126;BME280;58785;55.566;38.058;2023-07-02T05:51:35;98738.81;;;25.61;58.67
71126;BME280;58785;55.566;38.058;2023-07-02T05:54:00;98738.81;;;25.61;58.34
71126;BME280;58785;55.566;38.058;2023-07-02T05:56:26;98736.09;;;25.61;58.69
71126;BME280;58785;55.566;38.058;2023-07-02T05:58:52;98738.81;;;25.66;58.66
71126;BME280;58785;55.566;38.058;2023-07-02T06:01:18;98746.13;;;25.86;58.16
71126;BME280;58785;55.566;38.058;2023-07-02T06:03:43;98743.34;;;25.96;57.42
71126;BME280;58785;55.566;38.058;2023-07-02T06:06:11;98737.31;;;25.94;57.29
71126;BME280;58785;55.566;38.058;2023-07-02T06:08:37;98739.06;;;25.65;57.45
71126;BME280;58785;55.566;38.058;2023-07-02T06:11:03;98732.03;;;25.48;57.70
71126;BME280;58785;55.566;38.058;2023-07-02T06:13:29;98740.44;;;25.67;57.90
71126;BME280;58785;55.566;38.058;2023-07-02T06:15:54;98744.41;;;26.00;57.19
71126;BME280;58785;55.566;38.058;2023-07-02T06:18:20;98735.53;;;26.19;57.21
71126;BME280;58785;55.566;38.058;2023-07-02T06:20:46;98743.50;;;26.54;56.58
71126;BME280;58785;55.566;38.058;2023-07-02T06:23:12;98737.84;;;26.80;56.28
71126;BME280;58785;55.566;38.058;2023-07-02T06:25:38;98733.13;;;26.85;55.97
71126;BME280;58785;55.566;38.058;2023-07-02T06:28:03;98741.88;;;26.87;56.14
71126;BME280;58785;55.566;38.058;2023-07-02T06:30:29;98741.41;;;27.09;55.94
71126;BME280;58785;55.566;38.058;2023-07-02T06:32:55;98745.56;;;27.31;54.68
71126;BME280;58785;55.566;38.058;2023-07-02T06:35:21;98737.06;;;27.32;55.06
71126;BME280;58785;55.566;38.058;2023-07-02T06:37:47;98733.28;;;27.28;54.78
71126;BME280;58785;55.566;38.058;2023-07-02T06:40:13;98741.84;;;27.21;54.56
71126;BME280;58785;55.566;38.058;2023-07-02T06:42:40;98741.91;;;27.40;53.96
71126;BME280;58785;55.566;38.058;2023-07-02T06:45:06;98749.84;;;27.13;54.24
71126;BME280;58785;55.566;38.058;2023-07-02T06:47:32;98744.56;;;26.92;54.67
71126;BME280;58785;55.566;38.058;2023-07-02T06:49:59;98748.31;;;27.02;54.63
71126;BME280;58785;55.566;38.058;2023-07-02T06:52:25;98739.16;;;26.87;54.81
71126;BME280;58785;55.566;38.058;2023-07-02T06:54:51;98741.22;;;26.96;54.79
71126;BME280;58785;55.566;38.058;2023-07-02T06:57:17;98751.97;;;27.21;54.04
71126;BME280;58785;55.566;38.058;2023-07-02T06:59:43;98742.47;;;27.13;53.70
71126;BME280;58785;55.566;38.058;2023-07-02T07:02:09;98750.38;;;26.52;53.94
71126;BME280;58785;55.566;38.058;2023-07-02T07:04:34;98741.59;;;26.16;54.76
71126;BME280;58785;55.566;38.058;2023-07-02T07:07:01;98751.47;;;26.06;54.97
71126;BME280;58785;55.566;38.058;2023-07-02T07:09:28;98745.59;;;25.74;54.94
71126;BME280;58785;55.566;38.058;2023-07-02T07:11:54;98751.38;;;25.62;55.33
71126;BME280;58785;55.566;38.058;2023-07-02T07:14:20;98748.06;;;25.65;55.25
71126;BME280;58785;55.566;38.058;2023-07-02T07:16:46;98747.88;;;25.46;55.92
71126;BME280;58785;55.566;38.058;2023-07-02T07:19:12;98749.00;;;25.25;56.40
71126;BME280;58785;55.566;38.058;2023-07-02T07:21:37;98757.44;;;25.49;56.86
71126;BME280;58785;55.566;38.058;2023-07-02T07:24:03;98755.22;;;25.51;56.69
71126;BME280;58785;55.566;38.058;2023-07-02T07:26:29;98760.78;;;25.26;57.67
71126;BME280;58785;55.566;38.058;2023-07-02T07:28:55;98755.06;;;24.86;58.47
71126;BME280;58785;55.566;38.058;2023-07-02T07:31:21;98763.53;;;24.59;58.98
71126;BME280;58785;55.566;38.058;2023-07-02T07:33:47;98767.59;;;24.62;59.08
71126;BME280;58785;55.566;38.058;2023-07-02T07:36:13;98756.44;;;25.09;58.10
71126;BME280;58785;55.566;38.058;2023-07-02T07:38:39;98763.19;;;25.37;57.22
71126;BME280;58785;55.566;38.058;2023-07-02T07:41:05;98778.97;;;25.50;57.04
71126;BME280;58785;55.566;38.058;2023-07-02T07:43:30;98764.13;;;25.87;56.74
71126;BME280;58785;55.566;38.058;2023-07-02T07:45:56;98763.97;;;26.18;56.03
71126;BME280;58785;55.566;38.058;2023-07-02T07:48:23;98765.09;;;26.12;55.25
71126;BME280;58785;55.566;38.058;2023-07-02T07:50:49;98774.78;;;25.89;55.61
71126;BME280;58785;55.566;38.058;2023-07-02T07:53:15;98772.00;;;25.99;55.46
71126;BME280;58785;55.566;38.058;2023-07-02T07:55:41;98760.97;;;26.19;54.53
71126;BME280;58785;55.566;38.058;2023-07-02T07:58:06;98773.09;;;26.47;54.52
71126;BME280;58785;55.566;38.058;2023-07-02T08:00:32;98760.91;;;26.69;54.22
71126;BME280;58785;55.566;38.058;2023-07-02T08:02:58;98756.94;;;26.85;54.04
71126;BME280;58785;55.566;38.058;2023-07-02T08:05:25;98756.59;;;26.91;53.62
71126;BME280;58785;55.566;38.058;2023-07-02T08:07:51;98748.59;;;27.00;53.46
71126;BME280;58785;55.566;38.058;2023-07-02T08:10:19;98749.47;;;27.25;53.87
71126;BME280;58785;55.566;38.058;2023-07-02T08:12:45;98755.19;;;27.52;53.18
71126;BME280;58785;55.566;38.058;2023-07-02T08:15:13;98755.88;;;27.68;52.74
71126;BME280;58785;55.566;38.058;2023-07-02T08:17:38;98743.81;;;27.64;52.95
71126;BME280;58785;55.566;38.058;2023-07-02T08:20:04;98753.03;;;27.73;52.78
71126;BME280;58785;55.566;38.058;2023-07-02T08:22:35;98753.44;;;27.85;52.42
71126;BME280;58785;55.566;38.058;2023-07-02T08:25:02;98758.69;;;27.82;51.91
71126;BME280;58785;55.566;38.058;2023-07-02T08:27:30;98766.91;;;27.82;51.10
71126;BME280;58785;55.566;38.058;2023-07-02T08:29:55;98758.69;;;27.82;51.52
71126;BME280;58785;55.566;38.058;2023-07-02T08:32:22;98759.16;;;27.89;51.34
71126;BME280;58785;55.566;38.058;2023-07-02T08:34:48;98760.19;;;27.93;51.24
71126;BME280;58785;55.566;38.058;2023-07-02T08:37:13;98758.59;;;27.68;50.83
71126;BME280;58785;55.566;38.058;2023-07-02T08:39:39;98755.13;;;27.33;51.58
71126;BME280;58785;55.566;38.058;2023-07-02T08:42:06;98763.03;;;27.35;51.57
71126;BME280;58785;55.566;38.058;2023-07-02T08:44:32;98754.09;;;27.29;51.58
71126;BME280;58785;55.566;38.058;2023-07-02T08:46:58;98764.69;;;27.36;51.57
71126;BME280;58785;55.566;38.058;2023-07-02T08:49:24;98763.41;;;27.28;51.35
71126;BME280;58785;55.566;38.058;2023-07-02T08:51:50;98765.72;;;27.40;51.40
71126;BME280;58785;55.566;38.058;2023-07-02T08:54:17;98748.72;;;27.19;52.00
71126;BME280;58785;55.566;38.058;2023-07-02T08:56:46;98760.97;;;26.92;52.26
71126;BME280;58785;55.566;38.058;2023-07-02T08:59:13;98768.63;;;26.61;52.91
71126;BME280;58785;55.566;38.058;2023-07-02T09:01:49;98766.59;;;26.38;52.78
71126;BME280;58785;55.566;38.058;2023-07-02T09:06:42;98764.88;;;26.03;53.00
71126;BME280;58785;55.566;38.058;2023-07-02T09:09:09;98770.19;;;25.64;53.01
71126;BME280;58785;55.566;38.058;2023-07-02T09:11:46;98767.28;;;25.40;53.10
71126;BME280;58785;55.566;38.058;2023-07-02T09:14:26;98765.38;;;25.30;54.39
71126;BME280;58785;55.566;38.058;2023-07-02T09:17:07;98776.06;;;25.27;53.92
71126;BME280;58785;55.566;38.058;2023-07-02T09:19:35;98767.88;;;25.21;54.12
71126;BME280;58785;55.566;38.058;2023-07-02T09:22:02;98768.69;;;25.22;53.79
71126;BME280;58785;55.566;38.058;2023-07-02T09:24:30;98768.13;;;25.25;53.52
71126;BME280;58785;55.566;38.058;2023-07-02T09:26:58;98761.56;;;25.36;53.21
71126;BME280;58785;55.566;38.058;2023-07-02T09:29:32;98759.84;;;25.66;53.22
71126;BME280;58785;55.566;38.058;2023-07-02T09:32:04;98766.53;;;25.94;52.99
71126;BME280;58785;55.566;38.058;2023-07-02T09:34:31;98752.22;;;26.17;53.39
71126;BME280;58785;55.566;38.058;2023-07-02T09:36:58;98759.75;;;26.41;53.25
71126;BME280;58785;55.566;38.058;2023-07-02T09:39:28;98759.09;;;26.54;53.47
71126;BME280;58785;55.566;38.058;2023-07-02T09:41:56;98763.97;;;26.62;53.62
71126;BME280;58785;55.566;38.058;2023-07-02T09:44:29;98754.56;;;26.39;52.00
71126;BME280;58785;55.566;38.058;2023-07-02T09:47:07;98758.97;;;26.30;51.36
71126;BME280;58785;55.566;38.058;2023-07-02T09:49:38;98752.13;;;26.32;51.11
71126;BME280;58785;55.566;38.058;2023-07-02T09:52:06;98763.06;;;26.38;50.55
71126;BME280;58785;55.566;38.058;2023-07-02T09:54:33;98749.91;;;26.34;50.63
71126;BME280;58785;55.566;38.058;2023-07-02T09:56:59;98757.97;;;26.16;50.32
71126;BME280;58785;55.566;38.058;2023-07-02T09:59:25;98763.50;;;26.00;50.59
71126;BME280;58785;55.566;38.058;2023-07-02T10:01:51;98768.28;;;25.64;50.42
71126;BME280;58785;55.566;38.058;2023-07-02T10:04:19;98771.66;;;25.36;50.87
71126;BME280;58785;55.566;38.058;2023-07-02T10:06:48;98766.50;;;25.19;51.06
71126;BME280;58785;55.566;38.058;2023-07-02T10:09:15;98760.81;;;25.15;51.85
71126;BME280;58785;55.566;38.058;2023-07-02T10:11:41;98773.56;;;25.25;51.62
71126;BME280;58785;55.566;38.058;2023-07-02T10:14:07;98777.16;;;25.26;51.25
71126;BME280;58785;55.566;38.058;2023-07-02T10:16:33;98770.31;;;25.23;51.45
71126;BME280;58785;55.566;38.058;2023-07-02T10:19:09;98776.56;;;25.34;51.63
71126;BME280;58785;55.566;38.058;2023-07-02T10:21:35;98783.03;;;25.63;51.98
71126;BME280;58785;55.566;38.058;2023-07-02T10:24:14;98777.22;;;25.90;50.37
71126;BME280;58785;55.566;38.058;2023-07-02T10:26:58;98782.44;;;25.87;51.27
71126;BME280;58785;55.566;38.058;2023-07-02T10:29:25;98781.94;;;25.69;50.73
71126;BME280;58785;55.566;38.058;2023-07-02T10:31:52;98789.63;;;25.52;51.22
71126;BME280;58785;55.566;38.058;2023-07-02T10:34:32;98791.63;;;25.26;51.36
71126;BME280;58785;55.566;38.058;2023-07-02T10:37:00;98786.16;;;25.11;51.91
71126;BME280;58785;55.566;38.058;2023-07-02T10:39:26;98782.06;;;24.98;52.04
71126;BME280;58785;55.566;38.058;2023-07-02T10:41:52;98791.63;;;24.96;52.54
71126;BME280;58785;55.566;38.058;2023-07-02T10:44:17;98796.50;;;24.93;52.75
71126;BME280;58785;55.566;38.058;2023-07-02T10:46:47;98785.88;;;24.92;52.88
71126;BME280;58785;55.566;38.058;2023-07-02T10:49:17;98794.59;;;24.99;53.19
71126;BME280;58785;55.566;38.058;2023-07-02T10:51:43;98788.34;;;25.19;53.13
71126;BME280;58785;55.566;38.058;2023-07-02T10:54:09;98788.88;;;25.26;52.85
71126;BME280;58785;55.566;38.058;2023-07-02T10:56:35;98784.25;;;25.27;52.55
71126;BME280;58785;55.566;38.058;2023-07-02T10:59:01;98783.69;;;25.14;53.16
71126;BME280;58785;55.566;38.058;2023-07-02T11:01:27;98786.97;;;24.96;53.33
71126;BME280;58785;55.566;38.058;2023-07-02T11:04:01;98797.63;;;24.77;53.64
71126;BME280;58785;55.566;38.058;2023-07-02T11:06:28;98797.59;;;24.67;53.56
71126;BME280;58785;55.566;38.058;2023-07-02T11:08:55;98765.44;;;24.59;53.68
71126;BME280;58785;55.566;38.058;2023-07-02T11:11:22;98792.97;;;24.83;53.89
71126;BME280;58785;55.566;38.058;2023-07-02T11:13:50;98789.69;;;25.01;53.65
71126;BME280;58785;55.566;38.058;2023-07-02T11:16:24;98794.34;;;25.11;53.04
71126;BME280;58785;55.566;38.058;2023-07-02T11:19:06;98802.25;;;25.22;53.42
71126;BME280;58785;55.566;38.058;2023-07-02T11:21:36;98787.22;;;25.25;53.22
71126;BME280;58785;55.566;38.058;2023-07-02T11:24:03;98795.69;;;25.29;53.23
71126;BME280;58785;55.566;38.058;2023-07-02T11:26:40;98799.22;;;25.34;52.56
71126;BME280;58785;55.566;38.058;2023-07-02T11:29:12;98794.56;;;25.35;53.19
71126;BME280;58785;55.566;38.058;2023-07-02T11:31:38;98790.50;;;25.27;52.65
71126;BME280;58785;55.566;38.058;2023-07-02T11:34:14;98794.63;;;25.04;52.93
71126;BME280;58785;55.566;38.058;2023-07-02T11:36:40;98796.25;;;24.90;53.29
71126;BME280;58785;55.566;38.058;2023-07-02T11:39:06;98792.97;;;24.83;52.99
71126;BME280;58785;55.566;38.058;2023-07-02T11:41:43;98791.63;;;24.75;53.12
71126;BME280;58785;55.566;38.058;2023-07-02T11:44:09;98794.34;;;24.80;52.94
71126;BME280;58785;55.566;38.058;2023-07-02T11:46:35;98788.59;;;24.82;52.86
71126;BME280;58785;55.566;38.058;2023-07-02T11:49:02;98785.59;;;24.99;52.73
71126;BME280;58785;55.566;38.058;2023-07-02T11:51:28;98795.41;;;25.25;52.69
71126;BME280;58785;55.566;38.058;2023-07-02T11:53:53;98789.94;;;25.35;52.48
71126;BME280;58785;55.566;38.058;2023-07-02T11:56:19;98791.84;;;25.35;52.28
71126;BME280;58785;55.566;38.058;2023-07-02T11:58:45;98792.66;;;25.35;52.06
71126;BME280;58785;55.566;38.058;2023-07-02T12:01:10;98790.19;;;25.44;51.89
71126;BME280;58785;55.566;38.058;2023-07-02T12:03:36;98793.16;;;25.58;51.42
71126;BME280;58785;55.566;38.058;2023-07-02T12:06:02;98797.50;;;25.79;50.29
71126;BME280;58785;55.566;38.058;2023-07-02T12:08:27;98802.06;;;25.99;49.85
71126;BME280;58785;55.566;38.058;2023-07-02T12:10:53;98802.81;;;26.04;49.07
71126;BME280;58785;55.566;38.058;2023-07-02T12:13:19;98800.19;;;25.84;49.29
71126;BME280;58785;55.566;38.058;2023-07-02T12:15:47;98798.59;;;25.63;49.48
71126;BME280;58785;55.566;38.058;2023-07-02T12:18:13;98800.25;;;25.54;49.92
71126;BME280;58785;55.566;38.058;2023-07-02T12:20:41;98815.53;;;25.55;49.88
71126;BME280;58785;55.566;38.058;2023-07-02T12:23:07;98805.47;;;25.50;50.44
71126;BME280;58785;55.566;38.058;2023-07-02T12:25:33;98804.13;;;25.42;50.66
71126;BME280;58785;55.566;38.058;2023-07-02T12:27:58;98808.47;;;25.43;50.68
71126;BME280;58785;55.566;38.058;2023-07-02T12:30:24;98800.31;;;25.33;51.11
71126;BME280;58785;55.566;38.058;2023-07-02T12:32:50;98800.03;;;25.25;51.16
71126;BME280;58785;55.566;38.058;2023-07-02T12:35:16;98807.69;;;25.22;51.54
71126;BME280;58785;55.566;38.058;2023-07-02T12:38:00;98813.69;;;25.14;51.62
71126;BME280;58785;55.566;38.058;2023-07-02T12:40:25;98818.91;;;25.11;51.87
71126;BME280;58785;55.566;38.058;2023-07-02T12:42:51;98809.63;;;25.02;51.39
71126;BME280;58785;55.566;38.058;2023-07-02T12:45:17;98808.22;;;24.94;51.82
71126;BME280;58785;55.566;38.058;2023-07-02T12:47:43;98803.59;;;24.84;51.75
71126;BME280;58785;55.566;38.058;2023-07-02T12:50:10;98803.06;;;24.82;51.90
71126;BME280;58785;55.566;38.058;2023-07-02T12:52:37;98793.50;;;24.75;51.67
71126;BME280;58785;55.566;38.058;2023-07-02T12:55:03;98807.69;;;24.72;51.71